Time;durP1;ratioP1;P1;durP2;ratioP2;P2;SDS_P1;SDS_P2;PMS_P1;PMS_P2;Temp;Humidity;BMP_temperature;BMP_pressure;BME280_temperature;BME280_humidity;BME280_pressure;Samples;Min_cycle;Max_cycle;Signal;HPM_P1;HPM_P2
2021/12/26 00:00:30;;;;;;;4.65;4.18;;;;;;;;;;4800093;29;20170;-74
2021/12/26 00:02:59;;;;;;;4.55;4.15;;;;;;;;;;4796537;29;20112;-74
2021/12/26 00:05:27;;;;;;;5.43;4.93;;;;;;;;;;4788733;29;20045;-74
2021/12/26 00:07:57;;;;;;;5.13;4.63;;;;;;;;;;4799284;29;20138;-74
2021/12/26 00:10:25;;;;;;;5.72;5.22;;;;;;;;;;4798413;29;20064;-74
2021/12/26 00:12:53;;;;;;;6.05;5.45;;;;;;;;;;4801863;29;20087;-74
2021/12/26 00:15:21;;;;;;;7.03;4.53;;;;;;;;;;4801686;29;20131;-74
2021/12/26 00:17:48;;;;;;;5.18;4.75;;;;;;;;;;4800834;29;20079;-74
2021/12/26 00:20:17;;;;;;;5.00;4.50;;;;;;;;;;4799188;29;20039;-74
2021/12/26 00:22:44;;;;;;;5.65;4.95;;;;;;;;;;4797753;29;20182;-74
2021/12/26 00:25:13;;;;;;;5.20;4.78;;;;;;;;;;4797450;29;20415;-74
2021/12/26 00:27:41;;;;;;;5.07;4.68;;;;;;;;;;4824485;24;20142;-84
2021/12/26 00:30:11;;;;;;;5.40;4.90;;;;;;;;;;4818131;29;20464;-85
2021/12/26 00:32:38;;;;;;;5.60;5.10;;;;;;;;;;4805784;29;20051;-85
2021/12/26 00:35:06;;;;;;;5.57;5.07;;;;;;;;;;4796808;29;20043;-85
2021/12/26 00:37:33;;;;;;;5.70;5.20;;;;;;;;;;4786153;29;20039;-85
2021/12/26 00:40:05;;;;;;;4.97;4.57;;;;;;;;;;4800828;29;20047;-87
2021/12/26 00:42:32;;;;;;;6.57;5.72;;;;;;;;;;4786028;29;20542;-84
2021/12/26 00:45:00;;;;;;;8.60;7.22;;;;;;;;;;4798839;29;20052;-85
2021/12/26 00:47:29;;;;;;;8.82;7.93;;;;;;;;;;4801881;29;20126;-84
2021/12/26 00:49:57;;;;;;;9.10;8.20;;;;;;;;;;4793892;29;20054;-85
2021/12/26 00:52:25;;;;;;;9.77;8.77;;;;;;;;;;4800817;29;20047;-85
2021/12/26 00:54:53;;;;;;;12.15;10.55;;;;;;;;;;4786184;29;20057;-85
2021/12/26 00:57:21;;;;;;;12.35;11.05;;;;;;;;;;4790516;29;20132;-84
2021/12/26 00:59:48;;;;;;;10.65;9.55;;;;;;;;;;4791664;29;20047;-84
2021/12/26 01:02:18;;;;;;;14.32;11.43;;;;;;;;;;4803013;29;20047;-84
2021/12/26 01:04:48;;;;;;;12.70;10.43;;;;;;;;;;4805553;29;20066;-84
2021/12/26 01:07:33;;;;;;;16.73;11.70;;;;;;;;;;4803758;29;20100;-84
2021/12/26 01:10:04;;;;;;;11.90;10.70;;;;;;;;;;4790535;29;20051;-84
2021/12/26 01:12:32;;;;;;;11.60;10.27;;;;;;;;;;4803049;29;20057;-84
2021/12/26 01:15:05;;;;;;;13.05;10.93;;;;;;;;;;4801695;29;20508;-84
2021/12/26 01:17:39;;;;;;;12.10;10.65;;;;;;;;;;4798787;29;20446;-84
2021/12/26 01:23:01;;;;;;;12.00;9.50;;;;;;;;;;4797434;29;20082;-74
2021/12/26 01:25:29;;;;;;;10.85;9.45;;;;;;;;;;4814366;29;20050;-74
2021/12/26 01:27:56;;;;;;;11.50;10.25;;;;;;;;;;4812649;29;20051;-73
2021/12/26 01:30:24;;;;;;;13.82;12.38;;;;;;;;;;4812321;29;20114;-74
2021/12/26 01:32:54;;;;;;;13.65;11.30;;;;;;;;;;4797458;29;20059;-73
2021/12/26 01:35:40;;;;;;;12.93;11.05;;;;;;;;;;4796520;29;20047;-73
2021/12/26 01:38:26;;;;;;;12.55;11.20;;;;;;;;;;4797234;29;20184;-74
2021/12/26 01:41:10;;;;;;;12.35;10.88;;;;;;;;;;4809612;29;20125;-73
2021/12/26 01:43:47;;;;;;;12.20;11.00;;;;;;;;;;4797415;29;20123;-74
2021/12/26 01:46:29;;;;;;;12.48;10.95;;;;;;;;;;4813176;29;20647;-73
2021/12/26 01:49:01;;;;;;;12.73;11.38;;;;;;;;;;4814245;29;20047;-74
2021/12/26 01:51:28;;;;;;;12.82;11.43;;;;;;;;;;4816775;29;20881;-74
2021/12/26 01:53:57;;;;;;;12.75;11.43;;;;;;;;;;4812957;29;20046;-73
2021/12/26 01:56:25;;;;;;;13.43;11.55;;;;;;;;;;4798468;29;20062;-74
2021/12/26 01:58:53;;;;;;;13.75;11.70;;;;;;;;;;4814490;29;20051;-74
2021/12/26 02:01:38;;;;;;;11.63;10.23;;;;;;;;;;4808765;29;20230;-74
2021/12/26 02:04:06;;;;;;;13.68;11.68;;;;;;;;;;4798979;29;20059;-74
2021/12/26 02:06:34;;;;;;;13.50;11.35;;;;;;;;;;4799743;29;20038;-74
2021/12/26 02:09:03;;;;;;;12.02;10.77;;;;;;;;;;4799393;29;20058;-73
2021/12/26 02:11:31;;;;;;;13.80;12.07;;;;;;;;;;4814310;29;20050;-74
2021/12/26 02:14:00;;;;;;;16.00;12.07;;;;;;;;;;4815685;29;20055;-74
2021/12/26 02:16:37;;;;;;;14.70;12.32;;;;;;;;;;4797613;29;20047;-74
2021/12/26 02:19:05;;;;;;;12.60;11.25;;;;;;;;;;4818001;29;20111;-74
2021/12/26 02:24:25;;;;;;;13.60;11.30;;;;;;;;;;4817487;29;20518;-74
2021/12/26 02:29:42;;;;;;;14.13;11.98;;;;;;;;;;4803422;29;20047;-73
2021/12/26 02:32:10;;;;;;;14.68;12.93;;;;;;;;;;4818056;29;20100;-74
2021/12/26 02:34:37;;;;;;;13.02;11.45;;;;;;;;;;4817811;29;20043;-74
2021/12/26 02:37:05;;;;;;;12.85;11.48;;;;;;;;;;4818155;29;20445;-74
2021/12/26 02:39:33;;;;;;;15.68;12.95;;;;;;;;;;4817105;29;20523;-74
2021/12/26 02:42:00;;;;;;;13.82;12.07;;;;;;;;;;4816733;29;20043;-74
2021/12/26 02:44:28;;;;;;;14.32;11.95;;;;;;;;;;4816288;29;20053;-72
2021/12/26 02:46:56;;;;;;;14.82;12.57;;;;;;;;;;4802116;29;20042;-72
2021/12/26 02:49:25;;;;;;;16.30;12.82;;;;;;;;;;4816576;29;20047;-72
2021/12/26 02:51:53;;;;;;;15.98;12.95;;;;;;;;;;4813884;29;20046;-72
2021/12/26 02:54:23;;;;;;;15.68;12.25;;;;;;;;;;4817644;29;20535;-72
2021/12/26 02:56:51;;;;;;;14.13;11.77;;;;;;;;;;4816722;29;20104;-71
2021/12/26 02:59:18;;;;;;;16.55;13.35;;;;;;;;;;4802909;29;20051;-72
2021/12/26 03:01:47;;;;;;;18.15;14.07;;;;;;;;;;4817435;29;20050;-71
2021/12/26 03:04:15;;;;;;;18.80;14.10;;;;;;;;;;4818870;29;20047;-71
2021/12/26 03:07:01;;;;;;;15.60;11.80;;;;;;;;;;4802731;29;20053;-71
2021/12/26 03:09:32;;;;;;;15.40;12.10;;;;;;;;;;4802691;29;20054;-72
2021/12/26 03:12:00;;;;;;;13.27;11.25;;;;;;;;;;4814454;29;20064;-71
2021/12/26 03:14:28;;;;;;;18.83;13.27;;;;;;;;;;4802447;29;20059;-72
2021/12/26 03:16:55;;;;;;;19.65;14.98;;;;;;;;;;4800144;29;20544;-71
2021/12/26 03:19:22;;;;;;;20.00;14.27;;;;;;;;;;4816680;29;20045;-72
2021/12/26 03:21:51;;;;;;;18.42;13.35;;;;;;;;;;4817428;29;20572;-72
2021/12/26 03:24:18;;;;;;;18.48;14.48;;;;;;;;;;4803002;29;20134;-71
2021/12/26 03:26:46;;;;;;;19.25;15.32;;;;;;;;;;4817752;29;20058;-71
2021/12/26 03:29:13;;;;;;;21.60;16.27;;;;;;;;;;4815945;29;20045;-72
2021/12/26 03:31:42;;;;;;;18.52;13.38;;;;;;;;;;4784776;29;20163;-72
2021/12/26 03:34:09;;;;;;;20.08;15.85;;;;;;;;;;4785520;29;20116;-72
2021/12/26 03:36:37;;;;;;;20.40;15.07;;;;;;;;;;4782515;29;20062;-71
2021/12/26 03:39:05;;;;;;;19.40;14.55;;;;;;;;;;4785630;29;20103;-72
2021/12/26 03:41:33;;;;;;;20.92;15.50;;;;;;;;;;4800740;29;20477;-72
2021/12/26 03:44:02;;;;;;;18.90;14.13;;;;;;;;;;4800248;29;20057;-71
2021/12/26 03:46:30;;;;;;;19.13;14.23;;;;;;;;;;4785768;29;20134;-72
2021/12/26 03:49:01;;;;;;;21.27;15.95;;;;;;;;;;4784856;29;20055;-72
2021/12/26 03:51:29;;;;;;;23.92;17.17;;;;;;;;;;4800215;29;20125;-71
2021/12/26 03:53:56;;;;;;;19.30;14.88;;;;;;;;;;4784528;29;20047;-72
2021/12/26 03:56:23;;;;;;;21.67;16.13;;;;;;;;;;4799608;29;20057;-71
2021/12/26 03:59:03;;;;;;;20.15;15.63;;;;;;;;;;4785354;29;20065;-72
2021/12/26 04:01:31;;;;;;;22.02;14.93;;;;;;;;;;4785237;29;20493;-72
2021/12/26 04:03:59;;;;;;;21.88;15.00;;;;;;;;;;4801813;29;20047;-72
2021/12/26 04:06:26;;;;;;;20.92;15.65;;;;;;;;;;4803274;29;20080;-72
2021/12/26 04:08:54;;;;;;;20.10;15.18;;;;;;;;;;4816187;29;20099;-71
2021/12/26 04:11:22;;;;;;;19.10;15.13;;;;;;;;;;4801460;29;20057;-72
2021/12/26 04:13:49;;;;;;;19.75;14.13;;;;;;;;;;4814789;29;20099;-72
2021/12/26 04:16:17;;;;;;;17.92;13.90;;;;;;;;;;4801382;29;20054;-72
2021/12/26 04:18:45;;;;;;;14.82;12.20;;;;;;;;;;4815175;29;20664;-72
2021/12/26 04:21:13;;;;;;;14.40;11.10;;;;;;;;;;4815522;29;20458;-72
2021/12/26 04:23:53;;;;;;;15.35;11.77;;;;;;;;;;4816434;29;20042;-72
2021/12/26 04:26:21;;;;;;;13.60;10.90;;;;;;;;;;4816566;29;20134;-72
2021/12/26 04:28:49;;;;;;;15.32;11.63;;;;;;;;;;4812996;29;20057;-72
2021/12/26 04:31:17;;;;;;;13.50;10.70;;;;;;;;;;4815901;29;20061;-72
2021/12/26 04:33:47;;;;;;;15.43;11.30;;;;;;;;;;4817021;29;20117;-72
2021/12/26 04:36:14;;;;;;;14.00;10.63;;;;;;;;;;4802481;29;20047;-72
2021/12/26 04:38:43;;;;;;;13.32;10.07;;;;;;;;;;4802076;29;20055;-72
2021/12/26 04:41:12;;;;;;;13.52;10.18;;;;;;;;;;4785994;29;20055;-71
2021/12/26 04:43:55;;;;;;;18.83;12.73;;;;;;;;;;4817000;29;20050;-72
2021/12/26 04:46:41;;;;;;;18.40;13.23;;;;;;;;;;4806570;29;20046;-71
2021/12/26 04:49:22;;;;;;;18.55;14.13;;;;;;;;;;4783581;29;20090;-72
2021/12/26 04:51:49;;;;;;;20.42;14.32;;;;;;;;;;4796813;29;20384;-71
2021/12/26 04:54:19;;;;;;;18.35;13.02;;;;;;;;;;4801830;29;20077;-71
2021/12/26 04:56:46;;;;;;;16.40;11.52;;;;;;;;;;4800583;29;20461;-72
2021/12/26 04:59:14;;;;;;;22.92;15.45;;;;;;;;;;4801122;29;20130;-72
2021/12/26 05:01:41;;;;;;;22.75;15.15;;;;;;;;;;4803259;29;20523;-72
2021/12/26 05:04:10;;;;;;;23.02;15.95;;;;;;;;;;4816807;29;20451;-71
2021/12/26 05:06:38;;;;;;;17.52;13.52;;;;;;;;;;4800996;29;20074;-72
2021/12/26 05:09:06;;;;;;;19.48;13.48;;;;;;;;;;4801536;29;20408;-72
2021/12/26 05:11:34;;;;;;;20.63;15.23;;;;;;;;;;4801469;29;20141;-72
2021/12/26 05:14:02;;;;;;;18.48;13.27;;;;;;;;;;4816323;29;20404;-72
2021/12/26 05:16:29;;;;;;;18.02;13.48;;;;;;;;;;4801940;29;20154;-71
2021/12/26 05:18:57;;;;;;;23.45;15.35;;;;;;;;;;4800280;29;20035;-72
2021/12/26 05:21:24;;;;;;;18.40;13.77;;;;;;;;;;4799580;29;20046;-72
2021/12/26 05:23:52;;;;;;;21.50;14.88;;;;;;;;;;4788089;29;20107;-71
2021/12/26 05:26:21;;;;;;;19.95;14.38;;;;;;;;;;4815718;29;20103;-72
2021/12/26 05:28:48;;;;;;;19.80;14.10;;;;;;;;;;4814919;29;20243;-72
2021/12/26 05:31:18;;;;;;;19.05;14.02;;;;;;;;;;4814834;29;20125;-71
2021/12/26 05:33:45;;;;;;;17.10;12.15;;;;;;;;;;4814930;29;20492;-72
2021/12/26 05:36:14;;;;;;;21.02;13.75;;;;;;;;;;4815620;29;20565;-72
2021/12/26 05:38:43;;;;;;;19.52;14.35;;;;;;;;;;4799675;29;20107;-71
2021/12/26 05:41:11;;;;;;;20.35;15.02;;;;;;;;;;4815005;29;20043;-71
2021/12/26 05:43:48;;;;;;;18.55;13.65;;;;;;;;;;4800203;29;20039;-71
2021/12/26 05:46:15;;;;;;;19.58;14.88;;;;;;;;;;4815830;29;20072;-71
2021/12/26 05:48:43;;;;;;;22.30;15.95;;;;;;;;;;4798626;29;20054;-72
2021/12/26 05:51:25;;;;;;;22.00;14.32;;;;;;;;;;4799032;29;20600;-72
2021/12/26 05:54:12;;;;;;;22.30;14.73;;;;;;;;;;4801944;29;20047;-71
2021/12/26 05:56:40;;;;;;;24.52;15.90;;;;;;;;;;4814867;29;20043;-72
2021/12/26 05:59:07;;;;;;;18.23;14.48;;;;;;;;;;4800132;29;20054;-72
2021/12/26 06:01:36;;;;;;;21.05;15.80;;;;;;;;;;4815033;29;20057;-72
2021/12/26 06:04:04;;;;;;;17.15;13.32;;;;;;;;;;4801831;29;20050;-72
2021/12/26 06:06:31;;;;;;;23.23;15.10;;;;;;;;;;4815440;29;20491;-72
2021/12/26 06:08:59;;;;;;;20.55;16.05;;;;;;;;;;4802316;29;20077;-71
2021/12/26 06:11:27;;;;;;;20.40;15.90;;;;;;;;;;4796478;29;20171;-71
2021/12/26 06:13:54;;;;;;;18.50;14.45;;;;;;;;;;4799225;29;20066;-72
2021/12/26 06:16:21;;;;;;;18.73;14.43;;;;;;;;;;4798112;29;20115;-72
2021/12/26 06:18:49;;;;;;;18.48;13.35;;;;;;;;;;4798857;29;20055;-71
2021/12/26 06:21:35;;;;;;;18.75;14.77;;;;;;;;;;4797304;29;20402;-71
2021/12/26 06:24:22;;;;;;;16.77;12.90;;;;;;;;;;4798424;29;20069;-71
2021/12/26 06:27:26;;;;;;;16.95;13.93;;;;;;;;;;4799795;29;20082;-71
2021/12/26 06:30:19;;;;;;;15.43;13.27;;;;;;;;;;4810143;29;20138;-74
2021/12/26 06:33:06;;;;;;;19.08;14.15;;;;;;;;;;4819572;29;20058;-74
2021/12/26 06:35:53;;;;;;;19.40;14.75;;;;;;;;;;4813619;29;20479;-74
2021/12/26 06:38:38;;;;;;;16.58;13.30;;;;;;;;;;4798765;29;20047;-74
2021/12/26 06:41:29;;;;;;;15.95;13.35;;;;;;;;;;4802520;29;20051;-74
2021/12/26 06:44:15;;;;;;;18.00;14.00;;;;;;;;;;4817501;29;20057;-74
2021/12/26 06:46:46;;;;;;;18.38;13.65;;;;;;;;;;4813671;29;20377;-74
2021/12/26 06:49:28;;;;;;;16.77;13.43;;;;;;;;;;4812804;29;20380;-74
2021/12/26 06:52:01;;;;;;;16.15;12.85;;;;;;;;;;4801356;29;20051;-74
2021/12/26 06:54:29;;;;;;;17.38;13.48;;;;;;;;;;4784142;29;20051;-74
2021/12/26 06:56:56;;;;;;;21.45;15.10;;;;;;;;;;4800748;29;20464;-74
2021/12/26 06:59:25;;;;;;;16.67;13.43;;;;;;;;;;4798988;29;20047;-74
2021/12/26 07:01:53;;;;;;;16.60;13.30;;;;;;;;;;4800122;29;20043;-74
2021/12/26 07:04:23;;;;;;;15.77;12.55;;;;;;;;;;4801821;29;20043;-74
2021/12/26 07:06:51;;;;;;;12.77;11.18;;;;;;;;;;4803666;29;20078;-73
2021/12/26 07:09:28;;;;;;;15.65;12.40;;;;;;;;;;4802843;29;20556;-74
2021/12/26 07:11:56;;;;;;;21.33;14.68;;;;;;;;;;4813826;29;20153;-73
2021/12/26 07:14:34;;;;;;;19.42;14.70;;;;;;;;;;4803967;29;20051;-74
2021/12/26 07:17:01;;;;;;;16.83;13.82;;;;;;;;;;4773864;29;20051;-73
2021/12/26 07:19:28;;;;;;;18.45;14.45;;;;;;;;;;4804771;29;20050;-74
2021/12/26 07:22:02;;;;;;;16.95;13.10;;;;;;;;;;4794697;29;20055;-74
2021/12/26 07:24:30;;;;;;;17.80;13.63;;;;;;;;;;4797517;29;20072;-74
2021/12/26 07:26:58;;;;;;;17.17;13.13;;;;;;;;;;4785924;29;20075;-74
2021/12/26 07:29:51;;;;;;;17.25;12.27;;;;;;;;;;4797922;29;20035;-73
2021/12/26 07:32:19;;;;;;;15.63;11.88;;;;;;;;;;4796121;29;20055;-74
2021/12/26 07:34:46;;;;;;;17.08;12.50;;;;;;;;;;4783868;29;20051;-74
2021/12/26 07:37:14;;;;;;;19.85;13.43;;;;;;;;;;4799983;29;20074;-74
2021/12/26 07:39:44;;;;;;;14.90;12.48;;;;;;;;;;4799814;29;20137;-74
2021/12/26 07:42:12;;;;;;;18.98;12.95;;;;;;;;;;4823153;29;20517;-74
2021/12/26 07:44:59;;;;;;;17.48;12.43;;;;;;;;;;4793911;29;20046;-74
2021/12/26 07:47:45;;;;;;;18.23;12.27;;;;;;;;;;4820977;29;20125;-74
2021/12/26 07:50:13;;;;;;;18.08;12.65;;;;;;;;;;4792021;29;20488;-74
2021/12/26 07:53:05;;;;;;;17.02;11.23;;;;;;;;;;4794868;29;20051;-74
2021/12/26 07:55:53;;;;;;;15.65;12.18;;;;;;;;;;4780373;29;20058;-74
2021/12/26 07:58:39;;;;;;;16.85;11.80;;;;;;;;;;4819136;29;20054;-74
2021/12/26 08:01:28;;;;;;;14.80;11.05;;;;;;;;;;4812593;29;20057;-74
2021/12/26 08:04:19;;;;;;;21.00;12.45;;;;;;;;;;4812766;29;20047;-74
2021/12/26 08:07:12;;;;;;;16.13;10.98;;;;;;;;;;4813699;29;20050;-74
2021/12/26 08:09:40;;;;;;;15.32;10.95;;;;;;;;;;4814919;29;20070;-74
2021/12/26 08:12:08;;;;;;;14.13;10.50;;;;;;;;;;4814241;29;20066;-74
2021/12/26 08:14:35;;;;;;;17.80;12.38;;;;;;;;;;4808938;29;20417;-74
2021/12/26 08:17:03;;;;;;;15.15;11.10;;;;;;;;;;4819458;29;20074;-74
2021/12/26 08:19:31;;;;;;;15.98;11.98;;;;;;;;;;4817553;29;20046;-74
2021/12/26 08:21:58;;;;;;;20.02;12.27;;;;;;;;;;4822545;29;20538;-73
2021/12/26 08:24:26;;;;;;;15.25;11.02;;;;;;;;;;4807332;29;20196;-74
2021/12/26 08:26:54;;;;;;;14.32;10.65;;;;;;;;;;4831240;29;20050;-73
2021/12/26 08:29:23;;;;;;;13.85;9.77;;;;;;;;;;4801475;29;20050;-74
2021/12/26 08:31:54;;;;;;;14.18;10.07;;;;;;;;;;4791456;29;20106;-74
2021/12/26 08:34:22;;;;;;;12.25;8.95;;;;;;;;;;4797477;29;20058;-73
2021/12/26 08:36:57;;;;;;;13.90;9.32;;;;;;;;;;4803586;29;20307;-74
2021/12/26 08:39:30;;;;;;;14.05;10.65;;;;;;;;;;4804893;29;20070;-74
2021/12/26 08:41:57;;;;;;;11.63;8.32;;;;;;;;;;4812260;29;20096;-74
2021/12/26 08:44:25;;;;;;;14.27;10.50;;;;;;;;;;4802259;29;20134;-73
2021/12/26 08:46:53;;;;;;;11.80;8.73;;;;;;;;;;4809522;29;20043;-74
2021/12/26 08:49:21;;;;;;;12.38;8.32;;;;;;;;;;4795903;29;20455;-73
2021/12/26 08:51:49;;;;;;;14.02;10.27;;;;;;;;;;4791076;29;20054;-73
2021/12/26 08:54:16;;;;;;;14.13;9.82;;;;;;;;;;4792642;29;20056;-74
2021/12/26 08:56:44;;;;;;;13.95;9.48;;;;;;;;;;4793707;29;20193;-74
2021/12/26 08:59:11;;;;;;;10.73;7.25;;;;;;;;;;4792930;29;20049;-74
2021/12/26 09:01:39;;;;;;;13.85;9.52;;;;;;;;;;4789944;29;20084;-74
2021/12/26 09:04:06;;;;;;;12.55;8.82;;;;;;;;;;4805857;29;20067;-74
2021/12/26 09:06:33;;;;;;;12.55;9.23;;;;;;;;;;4801644;29;20046;-74
2021/12/26 09:09:01;;;;;;;12.77;8.10;;;;;;;;;;4803593;29;20043;-74
2021/12/26 09:11:28;;;;;;;12.35;8.48;;;;;;;;;;4782736;29;20054;-74
2021/12/26 09:13:56;;;;;;;14.40;8.52;;;;;;;;;;4782197;29;20143;-74
2021/12/26 09:16:41;;;;;;;11.63;8.63;;;;;;;;;;4792350;29;20438;-74
2021/12/26 09:19:08;;;;;;;15.35;9.85;;;;;;;;;;4806698;29;20039;-74
2021/12/26 09:21:36;;;;;;;12.48;8.43;;;;;;;;;;4798051;29;20531;-76
2021/12/26 09:24:04;;;;;;;15.30;9.80;;;;;;;;;;4795903;29;20055;-74
2021/12/26 09:26:32;;;;;;;11.48;8.15;;;;;;;;;;4797055;29;20519;-74
2021/12/26 09:29:00;;;;;;;159.93;80.45;;;;;;;;;;4790306;29;20055;-74
2021/12/26 09:31:28;;;;;;;39.60;19.98;;;;;;;;;;4801334;29;20074;-74
2021/12/26 09:33:55;;;;;;;15.45;10.38;;;;;;;;;;4799988;29;20062;-74
2021/12/26 09:36:23;;;;;;;11.13;7.93;;;;;;;;;;4798242;29;20137;-75
2021/12/26 09:38:50;;;;;;;14.32;11.70;;;;;;;;;;4800488;29;20145;-73
2021/12/26 09:41:17;;;;;;;13.25;9.77;;;;;;;;;;4800578;29;20078;-73
2021/12/26 09:43:45;;;;;;;10.98;8.30;;;;;;;;;;4798556;29;20304;-73
2021/12/26 09:46:12;;;;;;;9.85;7.07;;;;;;;;;;4802558;29;20067;-73
2021/12/26 09:48:40;;;;;;;12.20;7.28;;;;;;;;;;4800083;29;20078;-73
2021/12/26 09:51:07;;;;;;;11.23;7.38;;;;;;;;;;4799522;29;20077;-73
2021/12/26 09:53:38;;;;;;;9.88;7.80;;;;;;;;;;4781520;29;20477;-73
2021/12/26 09:56:10;;;;;;;11.32;7.97;;;;;;;;;;4801008;29;20049;-73
2021/12/26 09:58:51;;;;;;;8.73;6.85;;;;;;;;;;4799333;29;20054;-73
2021/12/26 10:01:31;;;;;;;14.55;7.75;;;;;;;;;;4798596;29;20055;-73
2021/12/26 10:04:25;;;;;;;11.18;7.40;;;;;;;;;;4798300;29;20043;-73
2021/12/26 10:06:57;;;;;;;9.63;7.25;;;;;;;;;;4803917;29;20077;-73
2021/12/26 10:09:24;;;;;;;9.23;7.20;;;;;;;;;;4796260;29;20057;-73
2021/12/26 10:11:53;;;;;;;9.20;6.68;;;;;;;;;;4800972;29;20263;-73
2021/12/26 10:14:22;;;;;;;11.73;7.50;;;;;;;;;;4800890;29;20055;-73
2021/12/26 10:16:54;;;;;;;8.95;7.32;;;;;;;;;;4798235;29;20047;-73
2021/12/26 10:19:22;;;;;;;16.33;8.18;;;;;;;;;;4800285;29;20055;-73
2021/12/26 10:21:52;;;;;;;9.93;7.13;;;;;;;;;;4799187;29;20081;-73
2021/12/26 10:24:23;;;;;;;10.68;7.32;;;;;;;;;;4797306;29;20070;-73
2021/12/26 10:27:04;;;;;;;10.52;7.82;;;;;;;;;;4798512;29;20038;-73
2021/12/26 10:29:42;;;;;;;10.73;7.63;;;;;;;;;;4797054;29;20230;-74
2021/12/26 10:32:18;;;;;;;9.95;6.40;;;;;;;;;;4788536;29;20044;-74
2021/12/26 10:34:50;;;;;;;10.73;7.10;;;;;;;;;;4796459;29;20135;-73
2021/12/26 10:37:24;;;;;;;11.90;7.32;;;;;;;;;;4804912;29;20042;-73
2021/12/26 10:40:01;;;;;;;10.20;7.28;;;;;;;;;;4800240;29;20500;-74
2021/12/26 10:42:30;;;;;;;10.00;7.15;;;;;;;;;;4795796;29;20055;-75
2021/12/26 10:45:03;;;;;;;13.55;9.20;;;;;;;;;;4802574;29;20043;-75
2021/12/26 10:47:31;;;;;;;11.02;7.90;;;;;;;;;;4803557;29;20046;-73
2021/12/26 10:50:06;;;;;;;9.48;6.57;;;;;;;;;;4807160;29;20066;-76
2021/12/26 10:52:35;;;;;;;14.98;7.22;;;;;;;;;;4814769;29;20047;-74
2021/12/26 10:55:05;;;;;;;12.15;7.90;;;;;;;;;;4803656;29;20129;-74
2021/12/26 10:57:36;;;;;;;10.48;7.93;;;;;;;;;;4812712;29;20134;-74
2021/12/26 11:00:04;;;;;;;7.65;4.35;;;;;;;;;;4799979;29;20504;-74
2021/12/26 11:02:35;;;;;;;9.73;6.78;;;;;;;;;;4804157;29;20134;-74
2021/12/26 11:05:07;;;;;;;3.75;2.65;;;;;;;;;;4802945;29;20469;-74
2021/12/26 11:07:39;;;;;;;6.57;4.70;;;;;;;;;;4803848;29;20047;-75
2021/12/26 11:10:09;;;;;;;10.45;7.25;;;;;;;;;;4802416;29;20071;-75
2021/12/26 11:12:37;;;;;;;12.77;7.78;;;;;;;;;;4805406;29;20078;-75
2021/12/26 11:15:06;;;;;;;12.98;7.68;;;;;;;;;;4806542;29;20049;-75
2021/12/26 11:17:34;;;;;;;9.88;6.53;;;;;;;;;;4812732;29;20082;-75
2021/12/26 11:20:02;;;;;;;11.18;7.93;;;;;;;;;;4801200;29;20046;-75
2021/12/26 11:22:29;;;;;;;16.00;7.88;;;;;;;;;;4800202;29;20076;-75
2021/12/26 11:24:59;;;;;;;12.93;8.52;;;;;;;;;;4803283;29;20086;-74
2021/12/26 11:27:27;;;;;;;13.32;7.93;;;;;;;;;;4810672;29;20051;-75
2021/12/26 11:29:54;;;;;;;11.57;6.97;;;;;;;;;;4808481;29;20038;-75
2021/12/26 11:32:24;;;;;;;10.68;6.97;;;;;;;;;;4805314;29;20042;-75
2021/12/26 11:34:52;;;;;;;10.23;7.28;;;;;;;;;;4805638;29;20130;-75
2021/12/26 11:37:19;;;;;;;13.40;7.70;;;;;;;;;;4801560;29;20138;-75
2021/12/26 11:40:10;;;;;;;11.30;7.30;;;;;;;;;;4820542;29;20079;-75
2021/12/26 11:43:09;;;;;;;11.75;7.20;;;;;;;;;;4794324;29;20385;-75
2021/12/26 11:46:06;;;;;;;10.65;6.68;;;;;;;;;;4798582;29;20043;-75
2021/12/26 11:49:07;;;;;;;10.77;7.85;;;;;;;;;;4797119;29;20055;-75
2021/12/26 11:52:03;;;;;;;10.43;6.47;;;;;;;;;;4797866;29;20058;-75
2021/12/26 11:54:54;;;;;;;11.48;7.10;;;;;;;;;;4793245;29;20042;-76
2021/12/26 11:57:32;;;;;;;16.30;6.97;;;;;;;;;;4798114;29;20050;-75
2021/12/26 12:00:03;;;;;;;12.95;7.95;;;;;;;;;;4804654;29;20141;-75
2021/12/26 12:02:49;;;;;;;10.55;6.55;;;;;;;;;;4798595;29;20046;-76
2021/12/26 12:05:18;;;;;;;;;;;;;;;;;;4802461;29;20043;-76
2021/12/26 12:07:50;;;;;;;10.98;6.65;;;;;;;;;;4802361;29;19970;-76
2021/12/26 12:10:17;;;;;;;;;;;;;;;;;;4813625;29;20043;-75
2021/12/26 12:12:44;;;;;;;8.57;5.90;;;;;;;;;;4809243;29;20298;-75
2021/12/26 12:15:12;;;;;;;8.90;6.93;;;;;;;;;;4804134;29;20054;-75
2021/12/26 12:17:39;;;;;;;10.93;6.70;;;;;;;;;;4808815;29;20079;-76
2021/12/26 12:20:08;;;;;;;10.50;7.22;;;;;;;;;;4801402;29;20042;-75
2021/12/26 12:22:36;;;;;;;12.13;6.65;;;;;;;;;;4811063;29;20543;-75
2021/12/26 12:25:23;;;;;;;10.80;6.47;;;;;;;;;;4803886;29;20046;-75
2021/12/26 12:28:01;;;;;;;9.52;6.40;;;;;;;;;;4786009;29;20082;-76
2021/12/26 12:30:28;;;;;;;9.40;6.70;;;;;;;;;;4801643;29;20094;-73
2021/12/26 12:33:15;;;;;;;8.60;6.57;;;;;;;;;;4798481;29;20047;-73
2021/12/26 12:35:49;;;;;;;8.65;6.40;;;;;;;;;;4794635;29;20418;-73
2021/12/26 12:38:23;;;;;;;8.75;6.40;;;;;;;;;;4803186;29;20412;-74
2021/12/26 12:40:50;;;;;;;10.23;6.53;;;;;;;;;;4799092;29;20047;-74
2021/12/26 12:43:19;;;;;;;9.32;6.28;;;;;;;;;;4787821;29;20422;-74
2021/12/26 12:46:04;;;;;;;10.38;6.38;;;;;;;;;;4798517;29;20419;-73
2021/12/26 12:48:34;;;;;;;11.23;6.30;;;;;;;;;;4799841;29;20050;-74
2021/12/26 12:51:24;;;;;;;10.10;6.43;;;;;;;;;;4794858;29;20054;-74
2021/12/26 12:53:58;;;;;;;10.10;6.53;;;;;;;;;;4805074;29;20087;-73
2021/12/26 12:56:44;;;;;;;9.00;6.32;;;;;;;;;;4786253;29;20138;-74
2021/12/26 12:59:14;;;;;;;9.30;6.40;;;;;;;;;;4812887;29;20051;-73
2021/12/26 13:01:52;;;;;;;9.45;6.30;;;;;;;;;;4792703;29;20137;-74
2021/12/26 13:04:25;;;;;;;10.63;6.78;;;;;;;;;;4802836;29;20046;-74
2021/12/26 13:06:55;;;;;;;8.97;6.03;;;;;;;;;;4783631;29;20150;-74
2021/12/26 13:09:23;;;;;;;11.27;6.85;;;;;;;;;;4795796;29;20418;-74
2021/12/26 13:11:51;;;;;;;8.38;6.50;;;;;;;;;;4798966;29;20075;-73
2021/12/26 13:14:38;;;;;;;9.88;6.70;;;;;;;;;;4793075;29;20047;-73
2021/12/26 13:17:13;;;;;;;7.53;5.75;;;;;;;;;;4797943;29;20053;-73
2021/12/26 13:19:40;;;;;;;9.93;6.10;;;;;;;;;;4805718;29;20069;-73
2021/12/26 13:22:07;;;;;;;8.18;5.95;;;;;;;;;;4802316;29;20479;-74
2021/12/26 13:24:37;;;;;;;10.32;6.32;;;;;;;;;;4802616;29;20049;-73
2021/12/26 13:27:05;;;;;;;10.18;6.72;;;;;;;;;;4801837;29;20093;-73
2021/12/26 13:29:33;;;;;;;10.73;6.82;;;;;;;;;;4799817;29;20058;-73
2021/12/26 13:32:00;;;;;;;9.90;6.43;;;;;;;;;;4807779;29;20404;-74
2021/12/26 13:34:28;;;;;;;12.13;6.72;;;;;;;;;;4795408;29;20074;-74
2021/12/26 13:36:55;;;;;;;9.30;6.20;;;;;;;;;;4803444;29;20095;-73
2021/12/26 13:39:24;;;;;;;11.63;6.93;;;;;;;;;;4796922;29;20129;-74
2021/12/26 13:41:52;;;;;;;10.32;6.90;;;;;;;;;;4803005;29;20281;-73
2021/12/26 13:44:21;;;;;;;13.20;7.63;;;;;;;;;;4796893;29;20085;-74
2021/12/26 13:46:58;;;;;;;10.23;6.95;;;;;;;;;;4808744;29;20062;-74
2021/12/26 13:49:25;;;;;;;12.25;7.07;;;;;;;;;;4789371;29;20595;-74
2021/12/26 13:51:56;;;;;;;11.90;6.93;;;;;;;;;;4799824;29;20515;-74
2021/12/26 13:54:25;;;;;;;12.40;7.38;;;;;;;;;;4799120;29;20050;-73
2021/12/26 13:57:01;;;;;;;10.25;7.28;;;;;;;;;;4802385;29;20072;-74
2021/12/26 13:59:34;;;;;;;11.90;7.43;;;;;;;;;;4790317;29;20046;-73
2021/12/26 14:02:05;;;;;;;10.77;7.18;;;;;;;;;;4794986;29;20054;-73
2021/12/26 14:04:33;;;;;;;13.80;8.93;;;;;;;;;;4804532;29;20050;-73
2021/12/26 14:07:06;;;;;;;11.25;7.38;;;;;;;;;;4805034;29;20157;-74
2021/12/26 14:09:38;;;;;;;9.10;6.85;;;;;;;;;;4797899;29;20050;-74
2021/12/26 14:12:05;;;;;;;13.67;8.57;;;;;;;;;;4802291;29;20305;-73
2021/12/26 14:14:37;;;;;;;12.50;8.38;;;;;;;;;;4792126;29;20082;-74
2021/12/26 14:17:06;;;;;;;13.32;7.80;;;;;;;;;;4815421;29;20202;-73
2021/12/26 14:19:33;;;;;;;13.80;9.18;;;;;;;;;;4803373;29;20050;-73
2021/12/26 14:22:01;;;;;;;12.45;9.07;;;;;;;;;;4801143;29;20472;-73
2021/12/26 14:24:28;;;;;;;12.23;7.45;;;;;;;;;;4817053;29;20154;-74
2021/12/26 14:26:57;;;;;;;10.55;7.45;;;;;;;;;;4798994;29;20042;-73
2021/12/26 14:29:24;;;;;;;9.00;7.22;;;;;;;;;;4820040;29;20042;-73
2021/12/26 14:31:54;;;;;;;10.30;7.13;;;;;;;;;;4815688;29;20062;-73
2021/12/26 14:34:25;;;;;;;8.40;6.68;;;;;;;;;;4820668;29;20046;-73
2021/12/26 14:36:56;;;;;;;10.52;7.15;;;;;;;;;;4816336;29;20137;-73
2021/12/26 14:39:29;;;;;;;12.55;7.55;;;;;;;;;;4811125;29;20050;-73
2021/12/26 14:41:57;;;;;;;8.90;6.50;;;;;;;;;;4786369;29;20364;-73
2021/12/26 14:44:28;;;;;;;11.25;7.68;;;;;;;;;;4795193;29;20062;-73
2021/12/26 14:47:07;;;;;;;14.23;7.78;;;;;;;;;;4800819;29;20158;-73
2021/12/26 14:49:58;;;;;;;13.20;6.57;;;;;;;;;;4811969;29;20492;-73
2021/12/26 14:52:26;;;;;;;11.43;6.80;;;;;;;;;;4811041;29;20342;-73
2021/12/26 14:54:55;;;;;;;9.63;7.07;;;;;;;;;;4801244;29;20142;-74
2021/12/26 14:57:25;;;;;;;11.20;7.15;;;;;;;;;;4816881;29;20141;-74
2021/12/26 15:00:07;;;;;;;14.10;7.90;;;;;;;;;;4815985;29;20090;-73